createdAt,value
2023-02-03T00:02:12.640Z,0.52
2023-02-03T00:07:34.269Z,0.50
2023-02-03T00:10:00.997Z,0.70
2023-02-03T00:12:28.694Z,0.43
2023-02-03T00:14:56.055Z,0.55
2023-02-03T00:17:23.681Z,0.37
2023-02-03T00:19:51.254Z,0.50
2023-02-03T00:22:19.655Z,0.60
2023-02-03T00:24:46.322Z,0.85
2023-02-03T00:30:10.963Z,0.73
2023-02-03T00:32:38.384Z,0.77
2023-02-03T00:35:06.149Z,0.80
2023-02-03T00:37:36.720Z,0.75
2023-02-03T00:40:03.677Z,0.85
2023-02-03T00:42:31.507Z,0.60
2023-02-03T00:44:58.282Z,0.80
2023-02-03T00:47:29.098Z,0.90
2023-02-03T00:49:57.548Z,0.60
2023-02-03T00:52:26.096Z,0.50
2023-02-03T00:54:54.117Z,0.70
2023-02-03T00:57:46.309Z,0.60
2023-02-03T01:00:15.014Z,0.50
2023-02-03T01:02:41.792Z,0.50
2023-02-03T01:05:14.093Z,0.52
2023-02-03T01:07:42.571Z,0.50
2023-02-03T01:10:09.817Z,0.70
2023-02-03T01:12:36.889Z,0.47
2023-02-03T01:15:04.094Z,0.45
2023-02-03T01:17:31.012Z,0.40
2023-02-03T01:20:01.093Z,0.57
2023-02-03T01:22:30.637Z,0.50
2023-02-03T01:24:59.071Z,0.40
2023-02-03T01:27:28.110Z,0.40
2023-02-03T01:29:56.359Z,0.50
2023-02-03T01:32:26.254Z,0.40
2023-02-03T01:34:53.006Z,0.30
2023-02-03T01:40:12.052Z,0.38
2023-02-03T01:42:39.313Z,0.40
2023-02-03T01:45:06.439Z,0.30
2023-02-03T01:47:40.205Z,0.30
2023-02-03T01:50:20.414Z,0.32
2023-02-03T01:52:56.195Z,0.20
2023-02-03T01:55:31.725Z,0.20
2023-02-03T01:58:27.103Z,0.37
2023-02-03T02:00:55.984Z,0.10
2023-02-03T02:03:34.154Z,0.00
2023-02-03T02:06:09.812Z,0.00
2023-02-03T02:08:38.675Z,0.00
2023-02-03T02:11:07.112Z,0.00
2023-02-03T02:13:36.194Z,0.10
2023-02-03T02:16:19.019Z,0.00
2023-02-03T02:19:09.876Z,0.00
2023-02-03T02:21:57.076Z,0.00
2023-02-03T02:24:42.236Z,0.00
2023-02-03T02:27:19.646Z,0.00
2023-02-03T02:30:27.586Z,0.00
2023-02-03T02:32:58.108Z,0.00
2023-02-03T02:35:39.136Z,0.00
2023-02-03T02:38:15.590Z,0.00
2023-02-03T02:41:14.288Z,0.00
2023-02-03T02:43:57.115Z,0.00
2023-02-03T02:46:33.658Z,0.00
2023-02-03T02:49:15.967Z,0.00
2023-02-03T02:51:45.370Z,0.00
2023-02-03T02:54:16.851Z,0.00
2023-02-03T02:56:48.482Z,0.00
2023-02-03T02:59:15.787Z,0.00
2023-02-03T03:01:44.160Z,0.00
2023-02-03T03:04:16.547Z,0.00
2023-02-03T03:06:48.970Z,0.00
2023-02-03T03:09:19.092Z,0.00
2023-02-03T03:11:53.158Z,0.00
2023-02-03T03:14:23.563Z,0.00
2023-02-03T03:16:57.949Z,0.00
2023-02-03T03:19:31.690Z,0.00
2023-02-03T03:22:04.500Z,0.00
2023-02-03T03:24:38.332Z,0.00
2023-02-03T03:27:16.941Z,0.00
2023-02-03T03:30:17.165Z,0.00
2023-02-03T03:32:45.193Z,0.10
2023-02-03T03:35:12.059Z,0.00
2023-02-03T03:37:55.865Z,0.00
2023-02-03T03:40:40.523Z,0.00
2023-02-03T03:43:15.362Z,0.00
2023-02-03T03:45:54.075Z,0.00
2023-02-03T03:48:28.188Z,0.00
2023-02-03T03:51:19.253Z,0.00
2023-02-03T03:53:51.319Z,0.00
2023-02-03T03:56:25.486Z,0.00
2023-02-03T03:58:54.138Z,0.00
2023-02-03T04:01:23.470Z,0.00
2023-02-03T04:03:56.388Z,0.00
2023-02-03T04:06:23.889Z,0.00
2023-02-03T04:08:50.834Z,0.00
2023-02-03T04:11:18.207Z,0.00
2023-02-03T04:13:44.989Z,0.00
2023-02-03T04:16:12.584Z,0.00
2023-02-03T04:18:41.130Z,0.00
2023-02-03T04:21:07.918Z,0.00
2023-02-03T04:23:34.653Z,0.00
2023-02-03T04:26:02.140Z,0.00
2023-02-03T04:28:28.969Z,0.00
2023-02-03T04:30:55.648Z,0.00
2023-02-03T04:33:22.490Z,0.00
2023-02-03T04:35:49.230Z,0.00
2023-02-03T04:41:09.229Z,0.00
2023-02-03T04:43:36.082Z,0.00
2023-02-03T04:46:03.731Z,0.00
2023-02-03T04:48:30.707Z,0.00
2023-02-03T04:51:03.389Z,0.00
2023-02-03T04:53:31.759Z,0.00
2023-02-03T04:55:58.652Z,0.00
2023-02-03T04:58:25.509Z,0.00
2023-02-03T05:00:53.124Z,0.00
2023-02-03T05:03:24.156Z,0.00
2023-02-03T05:05:52.792Z,0.00
2023-02-03T05:08:19.933Z,0.00
2023-02-03T05:10:47.065Z,0.00
2023-02-03T05:13:14.122Z,0.00
2023-02-03T05:15:42.713Z,0.00
2023-02-03T05:18:09.393Z,0.00
2023-02-03T05:20:37.682Z,0.00
2023-02-03T05:23:28.946Z,0.00
2023-02-03T05:25:55.943Z,0.00
2023-02-03T05:28:22.664Z,0.00
2023-02-03T05:30:49.643Z,0.00
2023-02-03T05:33:17.105Z,0.00
2023-02-03T05:35:44.035Z,0.00
2023-02-03T05:38:10.865Z,0.00
2023-02-03T05:41:03.603Z,0.00
2023-02-03T05:43:30.574Z,0.00
2023-02-03T05:46:03.647Z,0.00
2023-02-03T05:48:32.081Z,0.00
2023-02-03T05:50:59.652Z,0.00
2023-02-03T05:53:28.337Z,0.00
2023-02-03T05:55:55.217Z,0.00
2023-02-03T05:58:22.638Z,0.00
2023-02-03T06:00:50.278Z,0.00
2023-02-03T06:03:17.065Z,0.00
2023-02-03T06:05:44.794Z,0.00
2023-02-03T06:08:11.900Z,0.00
2023-02-03T06:10:38.840Z,0.00
2023-02-03T06:13:16.106Z,0.00
2023-02-03T06:15:43.356Z,0.00
2023-02-03T06:21:03.120Z,0.00
2023-02-03T06:23:29.809Z,0.00
2023-02-03T06:25:58.260Z,0.00
2023-02-03T06:28:24.999Z,0.00
2023-02-03T06:30:52.273Z,0.00
2023-02-03T06:33:21.743Z,0.00
2023-02-03T06:35:49.544Z,0.00
2023-02-03T06:38:19.652Z,0.00
2023-02-03T06:40:47.507Z,0.00
2023-02-03T06:43:14.686Z,0.00
2023-02-03T06:45:41.951Z,0.00
2023-02-03T06:48:12.116Z,0.00
2023-02-03T06:50:40.519Z,0.00
2023-02-03T06:53:07.470Z,0.00
2023-02-03T06:55:41.217Z,0.00
2023-02-03T06:58:08.739Z,0.00
2023-02-03T07:00:35.693Z,0.00
2023-02-03T07:03:02.646Z,0.00
2023-02-03T07:05:29.387Z,0.00
2023-02-03T07:07:56.470Z,0.00
2023-02-03T07:10:23.294Z,0.00
2023-02-03T07:12:50.234Z,0.00
2023-02-03T07:15:17.138Z,0.00
2023-02-03T07:17:43.967Z,0.00
2023-02-03T07:20:11.258Z,0.00
2023-02-03T07:22:38.214Z,0.00
2023-02-03T07:25:05.241Z,0.00
2023-02-03T07:27:32.604Z,0.00
2023-02-03T07:30:00.183Z,0.00
2023-02-03T07:32:27.596Z,0.00
2023-02-03T07:34:54.320Z,0.00
2023-02-03T07:37:21.246Z,0.00
2023-02-03T07:39:47.911Z,0.00
2023-02-03T07:42:15.521Z,0.00
2023-02-03T07:44:46.125Z,0.00
2023-02-03T07:47:13.568Z,0.00
2023-02-03T07:49:41.294Z,0.10
2023-02-03T07:52:07.955Z,0.00
2023-02-03T07:54:36.198Z,0.00
2023-02-03T07:57:02.887Z,0.00
2023-02-03T07:59:34.109Z,0.03
2023-02-03T08:02:00.880Z,0.10
2023-02-03T08:04:29.164Z,0.00
2023-02-03T08:06:56.002Z,0.20
2023-02-03T08:09:23.577Z,0.10
2023-02-03T08:11:52.202Z,0.10
2023-02-03T08:14:19.836Z,0.03
2023-02-03T08:16:50.724Z,0.00
2023-02-03T08:19:17.708Z,0.00
2023-02-03T08:21:44.458Z,0.00
2023-02-03T08:24:11.642Z,0.00
2023-02-03T08:26:38.521Z,0.00
2023-02-03T08:29:05.374Z,0.10
2023-02-03T08:31:32.251Z,0.00
2023-02-03T08:34:00.191Z,0.00
2023-02-03T08:36:42.010Z,0.00
2023-02-03T08:39:12.209Z,0.00
2023-02-03T08:41:39.027Z,0.00
2023-02-03T08:44:06.691Z,0.00
2023-02-03T08:46:33.471Z,0.00
2023-02-03T08:49:00.703Z,0.00
2023-02-03T08:51:29.205Z,0.00
2023-02-03T08:53:55.956Z,0.10
2023-02-03T08:56:23.633Z,0.00
2023-02-03T08:58:50.429Z,0.10
2023-02-03T09:01:17.235Z,0.10
2023-02-03T09:03:44.093Z,0.10
2023-02-03T09:06:11.578Z,0.00
2023-02-03T09:08:38.572Z,0.00
2023-02-03T09:11:10.479Z,0.00
2023-02-03T09:13:38.226Z,0.35
2023-02-03T09:16:08.743Z,0.00
2023-02-03T09:18:35.760Z,0.00
2023-02-03T09:21:08.419Z,0.00
2023-02-03T09:23:35.383Z,0.00
2023-02-03T09:26:06.779Z,0.00
2023-02-03T09:28:34.373Z,0.00
2023-02-03T09:31:15.096Z,0.00
2023-02-03T09:33:41.993Z,0.00
2023-02-03T09:36:09.005Z,0.00
2023-02-03T09:38:36.053Z,0.00
2023-02-03T09:41:12.087Z,0.00
2023-02-03T09:43:50.985Z,0.00
2023-02-03T09:46:22.555Z,0.10
2023-02-03T09:48:54.983Z,0.00
2023-02-03T09:51:55.607Z,0.00
2023-02-03T09:54:41.912Z,0.00
2023-02-03T09:57:19.388Z,0.00
2023-02-03T09:59:46.293Z,0.00
2023-02-03T10:02:23.455Z,0.00
2023-02-03T10:05:20.423Z,0.00
2023-02-03T10:08:02.482Z,0.00
2023-02-03T10:10:45.747Z,0.07
2023-02-03T10:13:29.213Z,0.00
2023-02-03T10:15:59.785Z,0.00
2023-02-03T10:18:47.379Z,0.00
2023-02-03T10:21:40.424Z,0.00
2023-02-03T10:24:16.392Z,0.00
2023-02-03T10:27:20.565Z,0.00
2023-02-03T10:33:09.115Z,0.00
2023-02-03T10:35:48.392Z,0.00
2023-02-03T10:39:18.446Z,0.00
2023-02-03T10:41:48.866Z,0.00
2023-02-03T10:44:15.948Z,0.00
2023-02-03T10:46:45.272Z,0.00
2023-02-03T10:49:13.791Z,0.10
2023-02-03T10:51:53.209Z,0.00
2023-02-03T10:54:32.477Z,0.00
2023-02-03T10:57:10.864Z,0.00
2023-02-03T10:59:42.741Z,0.00
2023-02-03T11:02:36.383Z,0.00
2023-02-03T11:05:23.298Z,0.00
2023-02-03T11:07:51.401Z,0.00
2023-02-03T11:10:38.771Z,0.00
2023-02-03T11:13:24.402Z,0.00
2023-02-03T11:15:55.869Z,0.00
2023-02-03T11:18:58.215Z,0.00
2023-02-03T11:21:31.593Z,0.00
2023-02-03T11:24:03.303Z,0.00
2023-02-03T11:26:41.872Z,0.00
2023-02-03T11:29:18.402Z,0.00
2023-02-03T11:31:49.886Z,0.00
2023-02-03T11:34:22.018Z,0.00
2023-02-03T11:36:52.803Z,0.00
2023-02-03T11:39:27.243Z,0.00
2023-02-03T11:41:56.423Z,0.00
2023-02-03T11:44:26.039Z,0.00
2023-02-03T11:46:58.262Z,0.00
2023-02-03T11:50:11.441Z,0.00
2023-02-03T11:52:51.266Z,0.00
2023-02-03T11:55:33.720Z,0.10
2023-02-03T11:58:27.879Z,0.00
2023-02-03T12:01:53.870Z,0.00
2023-02-03T12:04:48.345Z,0.00
2023-02-03T12:07:38.471Z,0.00
2023-02-03T12:10:52.711Z,0.00
2023-02-03T12:13:43.524Z,0.00
2023-02-03T12:16:25.282Z,0.00
2023-02-03T12:19:19.312Z,0.00
2023-02-03T12:21:52.294Z,0.00
2023-02-03T12:24:42.042Z,0.00
2023-02-03T12:27:39.360Z,0.00
2023-02-03T12:30:20.213Z,0.00
2023-02-03T12:32:54.288Z,0.00
2023-02-03T12:35:26.765Z,0.00
2023-02-03T12:42:02.335Z,0.00
2023-02-03T12:45:03.754Z,0.00
2023-02-03T12:48:10.253Z,0.00
2023-02-03T12:50:44.664Z,0.00
2023-02-03T12:53:14.563Z,0.00
2023-02-03T12:55:56.040Z,0.00
2023-02-03T12:58:32.060Z,0.00
2023-02-03T13:01:06.423Z,0.00
2023-02-03T13:04:12.633Z,0.00
2023-02-03T13:06:58.528Z,0.00
2023-02-03T13:09:58.346Z,0.00
2023-02-03T13:12:55.990Z,0.00
2023-02-03T13:15:51.213Z,0.00
2023-02-03T13:18:39.848Z,0.00
2023-02-03T13:21:11.256Z,0.00
2023-02-03T13:23:43.091Z,0.00
2023-02-03T13:26:42.280Z,0.00
2023-02-03T13:29:18.829Z,0.00
2023-02-03T13:32:08.309Z,0.00
2023-02-03T13:34:38.430Z,0.00
2023-02-03T13:37:17.205Z,0.00
2023-02-03T13:39:56.605Z,0.00
2023-02-03T13:42:28.232Z,0.00
2023-02-03T13:45:19.353Z,0.00
2023-02-03T13:47:49.576Z,0.00
2023-02-03T13:50:27.230Z,0.00
2023-02-03T13:52:57.470Z,0.00
2023-02-03T13:55:28.550Z,0.00
2023-02-03T13:57:55.746Z,0.00
2023-02-03T14:00:46.279Z,0.00
2023-02-03T14:03:31.771Z,0.00
2023-02-03T14:05:59.751Z,0.00
2023-02-03T14:08:26.462Z,0.00
2023-02-03T14:11:32.356Z,0.00
2023-02-03T14:14:05.712Z,0.00
2023-02-03T14:16:38.290Z,0.00
2023-02-03T14:19:10.891Z,0.00
2023-02-03T14:21:54.323Z,0.00
2023-02-03T14:24:22.674Z,0.00
2023-02-03T14:27:02.263Z,0.00
2023-02-03T14:29:36.979Z,0.00
2023-02-03T14:32:10.510Z,0.00
2023-02-03T14:34:40.728Z,0.00
2023-02-03T14:37:30.731Z,0.00
2023-02-03T14:40:20.251Z,0.00
2023-02-03T14:43:08.620Z,0.00
2023-02-03T14:46:17.184Z,0.00
2023-02-03T14:52:10.383Z,0.00
2023-02-03T14:55:30.361Z,0.00
2023-02-03T15:00:57.042Z,0.00
2023-02-03T15:03:25.457Z,0.00
2023-02-03T15:06:03.334Z,0.00
2023-02-03T15:08:38.419Z,0.00
2023-02-03T15:11:29.249Z,0.10
2023-02-03T15:14:13.962Z,0.00
2023-02-03T15:17:31.238Z,0.00
2023-02-03T15:19:58.629Z,0.00
2023-02-03T15:22:50.874Z,0.00
2023-02-03T15:25:19.669Z,0.00
2023-02-03T15:27:46.685Z,0.10
2023-02-03T15:30:19.248Z,0.00
2023-02-03T15:33:00.319Z,0.00
2023-02-03T15:36:00.121Z,0.00
2023-02-03T15:38:39.372Z,0.00
2023-02-03T15:41:14.846Z,0.00
2023-02-03T15:43:50.315Z,0.00
2023-02-03T15:46:22.754Z,0.00
2023-02-03T15:49:22.363Z,0.00
2023-02-03T15:52:07.959Z,0.00
2023-02-03T15:55:17.834Z,0.00
2023-02-03T15:57:49.315Z,0.00
2023-02-03T16:00:37.063Z,0.00
2023-02-03T16:03:39.185Z,0.00
2023-02-03T16:06:17.332Z,0.00
2023-02-03T16:08:48.707Z,0.00
2023-02-03T16:11:40.282Z,0.00
2023-02-03T16:14:11.828Z,0.00
2023-02-03T16:17:02.740Z,0.00
2023-02-03T16:19:32.166Z,0.00
2023-02-03T16:22:00.814Z,0.00
2023-02-03T16:24:33.548Z,0.00
2023-02-03T16:27:31.305Z,0.00
2023-02-03T16:30:04.584Z,0.00
2023-02-03T16:32:32.290Z,0.00
2023-02-03T16:34:59.034Z,0.00
2023-02-03T16:37:51.638Z,0.00
2023-02-03T16:40:24.052Z,0.00
2023-02-03T16:42:54.763Z,0.00
2023-02-03T16:45:25.526Z,0.00
2023-02-03T16:50:47.977Z,0.00
2023-02-03T16:53:18.061Z,0.00
2023-02-03T16:55:46.003Z,0.00
2023-02-03T16:58:15.314Z,0.00
2023-02-03T17:00:45.934Z,0.00
2023-02-03T17:03:23.397Z,0.00
2023-02-03T17:05:51.937Z,0.00
2023-02-03T17:08:21.548Z,0.00
2023-02-03T17:11:16.865Z,0.00
2023-02-03T17:13:44.306Z,0.00
2023-02-03T17:16:14.545Z,0.00
2023-02-03T17:18:41.807Z,0.00
2023-02-03T17:21:13.737Z,0.00
2023-02-03T17:23:40.969Z,0.00
2023-02-03T17:26:09.567Z,0.00
2023-02-03T17:28:38.507Z,0.30
2023-02-03T17:31:07.510Z,0.00
2023-02-03T17:33:35.189Z,0.00
2023-02-03T17:36:08.868Z,0.00
2023-02-03T17:55:19.783Z,0.00
2023-02-03T17:57:47.645Z,0.00
2023-02-03T18:00:15.122Z,0.10
2023-02-03T18:02:43.821Z,0.00
2023-02-03T18:05:11.422Z,0.00
2023-02-03T18:07:39.252Z,0.00
2023-02-03T18:10:06.396Z,0.00
2023-02-03T18:12:33.753Z,0.00
2023-02-03T18:15:01.434Z,0.00
2023-02-03T18:17:29.192Z,0.00
2023-02-03T18:19:57.265Z,0.10
2023-02-03T18:22:24.818Z,0.00
2023-02-03T18:24:52.397Z,0.00
2023-02-03T18:27:19.772Z,0.00
2023-02-03T18:29:49.279Z,0.00
2023-02-03T18:32:17.859Z,0.00
2023-02-03T18:34:45.811Z,0.00
2023-02-03T18:37:14.353Z,0.03
2023-02-03T18:39:41.467Z,0.00
2023-02-03T18:42:08.947Z,0.00
2023-02-03T18:44:37.086Z,0.00
2023-02-03T18:47:05.832Z,0.00
2023-02-03T18:49:59.268Z,0.00
2023-02-03T18:52:26.898Z,0.00
2023-02-03T18:54:54.893Z,0.00
2023-02-03T18:57:22.917Z,0.00
2023-02-03T18:59:51.946Z,0.00
2023-02-03T19:02:19.704Z,0.00
2023-02-03T19:04:47.798Z,0.00
2023-02-03T19:07:16.675Z,0.00
2023-02-03T19:09:44.533Z,0.00
2023-02-03T19:12:13.954Z,0.10
2023-02-03T19:14:41.784Z,0.00
2023-02-03T19:17:09.582Z,0.00
2023-02-03T19:19:37.718Z,0.00
2023-02-03T19:22:05.434Z,0.00
2023-02-03T19:24:32.962Z,0.00
2023-02-03T19:27:00.616Z,0.00
2023-02-03T19:29:28.051Z,0.00
2023-02-03T19:31:55.785Z,0.00
2023-02-03T19:34:27.562Z,0.00
2023-02-03T19:36:56.271Z,0.00
2023-02-03T19:39:24.537Z,0.00
2023-02-03T19:41:52.767Z,0.00
2023-02-03T19:44:20.250Z,0.00
2023-02-03T19:46:48.655Z,0.00
2023-02-03T19:49:16.560Z,0.00
2023-02-03T19:51:45.390Z,0.00
2023-02-03T19:54:17.340Z,0.00
2023-02-03T19:56:49.801Z,0.00
2023-02-03T19:59:45.263Z,0.00
2023-02-03T20:02:16.408Z,0.00
2023-02-03T20:04:44.590Z,0.00
2023-02-03T20:07:14.419Z,0.00
2023-02-03T20:09:42.741Z,0.00
2023-02-03T20:12:12.251Z,0.00
2023-02-03T20:14:42.491Z,0.00
2023-02-03T20:17:09.781Z,0.00
2023-02-03T20:19:38.299Z,0.00
2023-02-03T20:22:06.468Z,0.00
2023-02-03T20:24:34.660Z,0.00
2023-02-03T20:27:06.614Z,0.00
2023-02-03T20:29:34.592Z,0.00
2023-02-03T20:32:05.261Z,0.00
2023-02-03T20:34:35.818Z,0.00
2023-02-03T20:37:04.997Z,0.00
2023-02-03T20:39:32.870Z,0.00
2023-02-03T20:42:13.870Z,0.10
2023-02-03T20:44:42.492Z,0.00
2023-02-03T20:47:15.339Z,0.00
2023-02-03T20:49:45.331Z,0.00
2023-02-03T20:52:20.874Z,0.00
2023-02-03T20:54:49.867Z,0.00
2023-02-03T20:57:19.751Z,0.00
2023-02-03T20:59:48.810Z,0.03
2023-02-03T21:02:23.133Z,0.00
2023-02-03T21:04:51.700Z,0.00
2023-02-03T21:07:19.831Z,0.10
2023-02-03T21:09:48.783Z,0.00
2023-02-03T21:12:17.909Z,0.00
2023-02-03T21:14:49.386Z,0.15
2023-02-03T21:17:25.373Z,0.00
2023-02-03T21:19:56.210Z,0.00
2023-02-03T21:22:29.694Z,0.03
2023-02-03T21:24:59.912Z,0.00
2023-02-03T21:27:37.724Z,0.00
2023-02-03T21:30:31.833Z,0.22
2023-02-03T21:33:02.669Z,0.10
2023-02-03T21:35:38.008Z,0.10
2023-02-03T21:38:31.734Z,0.00
2023-02-03T21:41:00.249Z,0.00
2023-02-03T21:43:28.768Z,0.00
2023-02-03T21:45:58.462Z,0.10
2023-02-03T21:48:27.387Z,0.00
2023-02-03T21:51:00.540Z,0.00
2023-02-03T21:53:35.777Z,0.00
2023-02-03T21:56:28.609Z,0.08
2023-02-03T21:58:58.484Z,0.10
2023-02-03T22:01:34.696Z,0.00
2023-02-03T22:04:02.518Z,0.00
2023-02-03T22:06:55.363Z,0.00
2023-02-03T22:09:47.636Z,0.80
2023-02-03T22:15:08.520Z,0.00
2023-02-03T22:17:39.118Z,0.00
2023-02-03T22:20:06.827Z,0.00
2023-02-03T22:22:35.378Z,0.00
2023-02-03T22:25:02.747Z,0.00
2023-02-03T22:27:29.816Z,0.00
2023-02-03T22:29:56.708Z,0.00
2023-02-03T22:32:23.808Z,0.00
2023-02-03T22:34:50.590Z,0.00
2023-02-03T22:37:17.952Z,0.10
2023-02-03T22:39:44.763Z,0.00
2023-02-03T22:42:11.654Z,0.00
2023-02-03T22:44:40.487Z,0.10
2023-02-03T22:47:10.401Z,0.00
2023-02-03T22:49:37.388Z,0.00
2023-02-03T22:52:05.054Z,0.00
2023-02-03T22:54:31.889Z,0.10
2023-02-03T23:00:22.448Z,0.00
2023-02-03T23:02:49.832Z,0.20
2023-02-03T23:05:18.000Z,0.00
2023-02-03T23:08:11.398Z,0.00
2023-02-03T23:10:39.867Z,0.00
2023-02-03T23:13:06.730Z,0.00
2023-02-03T23:15:34.086Z,0.00
2023-02-03T23:18:00.939Z,0.10
2023-02-03T23:20:54.492Z,0.00
2023-02-03T23:23:21.324Z,0.00
2023-02-03T23:25:48.119Z,0.10
2023-02-03T23:28:15.565Z,0.00
2023-02-03T23:30:42.572Z,0.00
2023-02-03T23:33:09.828Z,0.05
2023-02-03T23:35:36.649Z,0.00
2023-02-03T23:38:03.804Z,0.10
2023-02-03T23:40:32.635Z,0.00
2023-02-03T23:43:00.145Z,0.00
2023-02-03T23:45:28.402Z,0.00
2023-02-03T23:47:56.482Z,0.00
2023-02-03T23:50:23.342Z,0.00
2023-02-03T23:52:50.847Z,0.13
2023-02-03T23:55:20.244Z,0.00
2023-02-03T23:57:48.166Z,0.00
